Time;durP1;ratioP1;P1;durP2;ratioP2;P2;SDS_P1;SDS_P2;PMS_P1;PMS_P2;Temp;Humidity;BMP_temperature;BMP_pressure;BME280_temperature;BME280_humidity;BME280_pressure;Samples;Min_cycle;Max_cycle;Signal;HPM_P1;HPM_P2
2022/09/02 00:01:56;;;;;;;0.55;0.50;;;;;;;18.28;52.73;99757.66;5054154;28;20041;-62
2022/09/02 00:04:26;;;;;;;0.70;0.70;;;;;;;18.19;53.20;99757.91;5053883;28;20056;-63
2022/09/02 00:06:55;;;;;;;0.60;0.60;;;;;;;18.09;53.55;99749.59;5053624;28;20044;-62
2022/09/02 00:09:26;;;;;;;0.50;0.50;;;;;;;18.03;53.47;99751.53;5052817;28;20126;-62
2022/09/02 00:11:56;;;;;;;2.03;1.30;;;;;;;17.96;53.03;99744.84;5053750;28;20079;-62
2022/09/02 00:14:28;;;;;;;0.60;0.60;;;;;;;17.92;53.53;99751.00;5053540;28;20095;-62
2022/09/02 00:16:59;;;;;;;0.43;0.43;;;;;;;17.79;54.40;99758.25;5053693;28;20056;-62
2022/09/02 00:19:30;;;;;;;0.60;0.60;;;;;;;17.72;54.73;99761.06;5053969;28;20045;-62
2022/09/02 00:22:01;;;;;;;0.45;0.45;;;;;;;17.57;55.48;99752.00;5053606;28;20045;-62
2022/09/02 00:24:30;;;;;;;0.85;0.85;;;;;;;17.43;55.68;99739.47;5053599;28;20044;-62
2022/09/02 00:26:58;;;;;;;2.43;0.87;;;;;;;17.46;55.91;99753.16;5053462;28;20491;-62
2022/09/02 00:29:28;;;;;;;0.50;0.50;;;;;;;17.34;55.86;99742.31;5052356;28;20061;-62
2022/09/02 00:31:58;;;;;;;0.40;0.40;;;;;;;17.39;55.91;99753.34;5053802;28;20286;-62
2022/09/02 00:34:27;;;;;;;1.13;0.90;;;;;;;17.31;55.98;99739.78;5053579;28;20037;-62
2022/09/02 00:36:56;;;;;;;0.70;0.70;;;;;;;17.19;56.56;99745.28;5053406;28;20096;-62
2022/09/02 00:39:26;;;;;;;1.02;0.70;;;;;;;17.07;56.59;99740.44;5053397;28;20072;-62
2022/09/02 00:41:55;;;;;;;0.50;0.50;;;;;;;17.00;56.98;99746.66;5053428;28;20044;-62
2022/09/02 00:44:24;;;;;;;0.50;0.50;;;;;;;16.94;57.33;99741.63;5054777;28;20045;-62
2022/09/02 00:46:52;;;;;;;0.47;0.47;;;;;;;16.89;57.44;99746.09;5057754;28;20068;-62
2022/09/02 00:49:26;;;;;;;0.70;0.70;;;;;;;16.84;57.90;99744.50;5056617;28;20049;-62
2022/09/02 00:51:59;;;;;;;0.50;0.50;;;;;;;16.76;58.68;99744.69;5058020;28;20434;-63
2022/09/02 00:54:32;;;;;;;0.40;0.40;;;;;;;16.68;58.32;99744.00;5057316;28;20055;-62
2022/09/02 00:57:03;;;;;;;0.70;0.70;;;;;;;16.58;58.35;99740.00;5056193;28;20041;-62
2022/09/02 00:59:43;;;;;;;0.60;0.60;;;;;;;16.61;58.84;99739.88;5057640;28;20072;-62
2022/09/02 01:02:13;;;;;;;3.63;1.42;;;;;;;16.57;58.69;99744.28;5058148;28;20092;-62
2022/09/02 01:04:45;;;;;;;0.75;0.60;;;;;;;16.51;59.12;99743.53;5055642;28;20069;-63
2022/09/02 01:07:15;;;;;;;0.70;0.70;;;;;;;16.45;59.71;99741.13;5055965;28;20055;-62
2022/09/02 01:09:44;;;;;;;0.70;0.70;;;;;;;16.37;59.59;99740.44;5056242;28;20045;-62
2022/09/02 01:12:13;;;;;;;0.53;0.53;;;;;;;16.38;60.15;99747.28;5057136;28;20550;-63
2022/09/02 01:14:43;;;;;;;0.57;0.57;;;;;;;16.26;60.06;99750.16;5056947;28;20136;-62
2022/09/02 01:17:12;;;;;;;0.73;0.73;;;;;;;16.20;60.39;99742.53;5056055;28;20544;-62
2022/09/02 01:19:47;;;;;;;0.75;0.75;;;;;;;16.21;60.04;99754.56;5057310;28;20106;-62
2022/09/02 01:22:21;;;;;;;0.50;0.50;;;;;;;16.15;60.71;99754.69;5055738;28;20052;-62
2022/09/02 01:24:51;;;;;;;0.50;0.50;;;;;;;16.04;60.82;99752.34;5055870;28;20059;-62
2022/09/02 01:27:23;;;;;;;0.60;0.60;;;;;;;15.94;61.58;99746.56;5056975;28;20513;-62
2022/09/02 01:29:53;;;;;;;0.55;0.55;;;;;;;15.85;61.42;99751.91;5056827;28;20048;-62
2022/09/02 01:32:23;;;;;;;0.93;0.93;;;;;;;15.76;62.28;99752.09;5057038;28;20071;-62
2022/09/02 01:34:51;;;;;;;0.50;0.50;;;;;;;15.76;62.80;99753.81;5055397;28;20041;-62
2022/09/02 01:37:22;;;;;;;0.57;0.57;;;;;;;15.63;62.72;99755.78;5056627;28;20045;-62
2022/09/02 01:39:51;;;;;;;0.77;0.77;;;;;;;15.46;63.01;99746.69;5056600;28;20049;-62
2022/09/02 01:42:21;;;;;;;0.47;0.47;;;;;;;15.44;63.06;99754.41;5056545;28;20048;-62
2022/09/02 01:44:51;;;;;;;0.50;0.50;;;;;;;15.40;63.38;99755.38;5056458;28;20052;-62
2022/09/02 01:47:24;;;;;;;0.63;0.63;;;;;;;15.22;63.41;99737.69;5056699;28;20430;-62
2022/09/02 01:49:53;;;;;;;0.60;0.60;;;;;;;15.26;63.20;99758.16;5056703;28;20053;-62
2022/09/02 01:52:27;;;;;;;0.77;0.65;;;;;;;15.26;63.72;99752.22;5055460;28;20069;-62
2022/09/02 01:54:56;;;;;;;0.45;0.45;;;;;;;15.30;63.86;99752.13;5056539;28;20037;-62
2022/09/02 01:57:25;;;;;;;0.40;0.40;;;;;;;15.33;63.98;99753.78;5054915;28;20045;-62
2022/09/02 01:59:55;;;;;;;0.53;0.50;;;;;;;15.33;63.76;99756.34;5055590;28;20488;-62
2022/09/02 02:02:24;;;;;;;0.60;0.60;;;;;;;15.35;64.02;99754.59;5055281;28;20340;-63
2022/09/02 02:04:53;;;;;;;1.23;1.05;;;;;;;15.22;64.03;99753.13;5056069;28;20099;-63
2022/09/02 02:07:24;;;;;;;0.50;0.50;;;;;;;15.19;64.23;99748.03;5054731;28;20045;-62
2022/09/02 02:09:53;;;;;;;0.80;0.70;;;;;;;15.11;64.39;99745.63;5056049;28;20053;-63
2022/09/02 02:12:22;;;;;;;0.47;0.47;;;;;;;15.13;64.35;99749.00;5054739;28;20056;-62
2022/09/02 02:14:51;;;;;;;0.50;0.50;;;;;;;15.20;64.24;99750.59;5055912;28;20041;-62
2022/09/02 02:17:22;;;;;;;0.50;0.50;;;;;;;15.22;64.39;99753.13;5056070;28;20059;-62
2022/09/02 02:19:51;;;;;;;0.70;0.70;;;;;;;15.15;64.84;99752.38;5055813;28;20041;-62
2022/09/02 02:22:20;;;;;;;0.50;0.50;;;;;;;15.03;64.73;99751.75;5054995;28;20495;-62
2022/09/02 02:24:50;;;;;;;0.47;0.47;;;;;;;14.86;64.80;99733.19;5054550;28;20450;-62
2022/09/02 02:27:19;;;;;;;0.40;0.40;;;;;;;14.91;64.92;99751.97;5055563;28;20048;-62
2022/09/02 02:29:48;;;;;;;0.40;0.40;;;;;;;14.90;65.13;99753.69;5054425;28;20057;-62
2022/09/02 02:32:18;;;;;;;0.40;0.40;;;;;;;14.76;65.23;99723.09;5055557;28;20558;-62
2022/09/02 02:34:48;;;;;;;0.57;0.57;;;;;;;14.90;65.10;99748.53;5054662;28;20045;-62
2022/09/02 02:37:17;;;;;;;0.50;0.50;;;;;;;14.90;65.61;99745.16;5055660;28;20482;-62
2022/09/02 02:39:54;;;;;;;1.13;1.02;;;;;;;14.90;65.92;99750.28;5054268;28;20068;-62
2022/09/02 02:42:24;;;;;;;0.60;0.60;;;;;;;14.93;66.37;99750.22;5054276;28;20072;-62
2022/09/02 02:44:52;;;;;;;0.60;0.60;;;;;;;14.96;66.47;99750.16;5054190;28;20041;-62
2022/09/02 02:47:21;;;;;;;0.63;0.63;;;;;;;15.01;66.83;99748.38;5054189;28;20387;-62
2022/09/02 02:49:50;;;;;;;0.70;0.70;;;;;;;15.08;66.19;99749.94;5054059;28;20041;-62
2022/09/02 02:52:19;;;;;;;0.60;0.60;;;;;;;15.11;66.29;99757.63;5054037;28;20087;-62
2022/09/02 02:54:48;;;;;;;0.60;0.60;;;;;;;15.10;66.75;99758.47;5054292;28;20040;-62
2022/09/02 02:57:18;;;;;;;0.50;0.50;;;;;;;15.22;67.01;99759.13;5053876;28;20064;-62
2022/09/02 02:59:47;;;;;;;0.65;0.65;;;;;;;15.32;66.35;99754.66;5055040;28;20053;-62
2022/09/02 03:02:16;;;;;;;0.43;0.43;;;;;;;15.45;66.52;99761.31;5055305;28;20098;-62
2022/09/02 03:04:45;;;;;;;0.40;0.40;;;;;;;15.51;65.64;99748.31;5053558;28;20040;-62
2022/09/02 03:07:13;;;;;;;8.60;0.88;;;;;;;15.59;65.05;99754.16;5054345;28;20060;-62
2022/09/02 03:09:43;;;;;;;0.80;0.80;;;;;;;15.65;64.75;99750.59;5053518;28;20041;-62
2022/09/02 03:12:15;;;;;;;0.50;0.50;;;;;;;15.67;64.59;99749.69;5053615;28;20051;-62
2022/09/02 03:14:48;;;;;;;0.47;0.47;;;;;;;15.65;65.02;99754.03;5053910;28;20068;-62
2022/09/02 03:17:18;;;;;;;0.57;0.57;;;;;;;15.62;65.51;99748.94;5054805;28;20445;-62
2022/09/02 03:19:49;;;;;;;;;;;;;;;15.57;65.78;99750.78;5054982;28;20098;-62
2022/09/02 03:22:18;;;;;;;0.70;0.70;;;;;;;15.57;66.14;99750.78;5053444;28;19946;-62
2022/09/02 03:24:47;;;;;;;0.50;0.50;;;;;;;15.59;66.12;99749.00;5053645;28;20047;-62
2022/09/02 03:27:16;;;;;;;0.50;0.50;;;;;;;15.60;65.40;99745.53;5054703;28;20040;-62
2022/09/02 03:29:46;;;;;;;0.60;0.60;;;;;;;15.62;65.21;99748.94;5054344;28;20044;-62
2022/09/02 03:32:15;;;;;;;0.50;0.50;;;;;;;15.65;65.02;99748.88;5054365;28;20436;-62
2022/09/02 03:34:45;;;;;;;0.40;0.40;;;;;;;15.55;65.54;99751.69;5054628;28;20151;-62
2022/09/02 03:37:14;;;;;;;0.60;0.60;;;;;;;15.48;65.62;99756.06;5054324;28;20045;-62
2022/09/02 03:39:42;;;;;;;0.60;0.60;;;;;;;15.48;66.17;99750.94;5053577;28;20048;-62
2022/09/02 03:42:11;;;;;;;0.50;0.50;;;;;;;15.43;66.13;99747.56;5054482;28;20044;-62
2022/09/02 03:44:51;;;;;;;0.50;0.50;;;;;;;15.31;66.45;99746.09;5054217;28;20068;-62
2022/09/02 03:47:20;;;;;;;1.17;0.80;;;;;;;15.32;67.31;99759.78;5054055;28;20073;-62
2022/09/02 03:49:54;;;;;;;0.52;0.52;;;;;;;15.23;67.68;99749.69;5054007;28;20044;-62
2022/09/02 03:52:24;;;;;;;2.25;1.15;;;;;;;15.12;68.22;99754.16;5054359;28;20053;-62
2022/09/02 03:54:53;;;;;;;0.40;0.40;;;;;;;15.05;68.83;99755.13;5052747;28;20055;-62
2022/09/02 03:57:24;;;;;;;0.70;0.70;;;;;;;15.04;68.83;99753.47;5053073;28;20102;-62
2022/09/02 03:59:55;;;;;;;0.47;0.47;;;;;;;15.06;69.00;99755.13;5053019;28;20127;-62
2022/09/02 04:02:24;;;;;;;2.25;0.90;;;;;;;15.16;68.82;99758.38;5053915;28;20116;-62
2022/09/02 04:04:53;;;;;;;0.63;0.63;;;;;;;15.25;69.17;99758.22;5052663;28;20072;-63
2022/09/02 04:07:22;;;;;;;0.70;0.70;;;;;;;15.32;68.96;99759.78;5053776;28;20052;-62
2022/09/02 04:09:54;;;;;;;;;;;;;;;15.43;68.41;99757.84;5054071;28;20048;-62
2022/09/02 04:12:23;;;;;;;0.43;0.43;;;;;;;15.53;68.06;99759.41;5052888;28;19920;-62
2022/09/02 04:15:01;;;;;;;1.25;0.60;;;;;;;15.61;67.82;99752.41;5053743;28;20043;-62
2022/09/02 04:17:30;;;;;;;0.60;0.60;;;;;;;15.69;67.76;99765.94;5052818;28;20045;-62
2022/09/02 04:19:59;;;;;;;1.15;1.05;;;;;;;15.71;67.50;99761.63;5051536;28;20044;-62
2022/09/02 04:22:27;;;;;;;0.93;0.93;;;;;;;15.75;68.12;99768.41;5052358;28;20041;-62
2022/09/02 04:24:56;;;;;;;0.95;0.75;;;;;;;15.79;68.04;99772.59;5052361;28;20049;-62
2022/09/02 04:27:25;;;;;;;0.73;0.73;;;;;;;15.87;68.04;99764.72;5052290;28;20056;-62
2022/09/02 04:29:55;;;;;;;0.60;0.60;;;;;;;15.88;67.77;99762.09;5053502;28;20049;-62
2022/09/02 04:32:26;;;;;;;0.77;0.77;;;;;;;15.90;67.56;99770.69;5053720;28;20513;-62
2022/09/02 04:34:55;;;;;;;0.60;0.60;;;;;;;15.98;67.28;99763.63;5052317;28;20041;-62
2022/09/02 04:37:25;;;;;;;;;;;;;;;16.06;67.01;99766.03;5053881;28;20136;-62
2022/09/02 04:39:56;;;;;;;0.43;0.43;;;;;;;16.14;66.96;99771.03;5053809;28;20330;-62
2022/09/02 04:42:26;;;;;;;0.55;0.55;;;;;;;16.17;66.92;99773.53;5053317;28;20589;-62
2022/09/02 04:44:56;;;;;;;0.70;0.70;;;;;;;16.18;66.43;99767.50;5052203;28;20538;-62
2022/09/02 04:47:28;;;;;;;0.60;0.60;;;;;;;16.21;65.79;99767.44;5052366;28;20510;-62
2022/09/02 04:49:58;;;;;;;0.73;0.73;;;;;;;16.30;65.46;99769.78;5052210;28;20048;-62
2022/09/02 04:52:27;;;;;;;0.50;0.50;;;;;;;16.35;64.13;99775.69;5051994;28;20139;-62
2022/09/02 04:54:56;;;;;;;;;;;;;;;16.44;62.78;99775.47;5053632;28;20056;-62
2022/09/02 04:57:25;;;;;;;0.47;0.47;;;;;;;16.50;61.52;99762.47;5053200;28;19921;-62
2022/09/02 04:59:55;;;;;;;0.57;0.57;;;;;;;16.57;59.85;99766.63;5053547;28;20037;-62
2022/09/02 05:02:24;;;;;;;0.60;0.60;;;;;;;16.64;58.99;99761.28;5052193;28;20037;-62
2022/09/02 05:04:55;;;;;;;0.60;0.60;;;;;;;16.70;57.81;99760.28;5052898;28;20048;-63
2022/09/02 05:07:30;;;;;;;0.60;0.60;;;;;;;16.77;57.38;99764.44;5053598;28;20092;-62
2022/09/02 05:09:59;;;;;;;0.73;0.73;;;;;;;16.85;57.04;99764.22;5053041;28;20129;-62
2022/09/02 05:12:34;;;;;;;0.60;0.60;;;;;;;16.91;57.57;99759.78;5053017;28;20056;-62
2022/09/02 05:15:04;;;;;;;0.65;0.65;;;;;;;16.93;56.73;99758.00;5051942;28;20045;-62
2022/09/02 05:17:35;;;;;;;0.65;0.65;;;;;;;16.95;56.94;99761.38;5053083;28;20044;-62
2022/09/02 05:20:10;;;;;;;0.80;0.80;;;;;;;17.02;57.36;99762.91;5051905;28;20047;-62
2022/09/02 05:22:40;;;;;;;1.30;0.93;;;;;;;17.06;57.17;99763.69;5051701;28;20445;-62
2022/09/02 05:25:10;;;;;;;0.50;0.50;;;;;;;17.10;57.18;99770.47;5053235;28;20133;-62
2022/09/02 05:27:39;;;;;;;0.50;0.50;;;;;;;17.13;57.68;99768.63;5052035;28;20552;-62
2022/09/02 05:30:09;;;;;;;0.70;0.70;;;;;;;17.14;57.30;99772.91;5052870;28;20041;-62
2022/09/02 05:32:40;;;;;;;0.70;0.70;;;;;;;17.17;57.17;99772.84;5055354;28;20063;-62
2022/09/02 05:35:11;;;;;;;0.60;0.60;;;;;;;17.18;56.64;99779.69;5056968;28;20049;-62
2022/09/02 05:37:40;;;;;;;1.65;0.73;;;;;;;17.23;56.42;99777.84;5055369;28;20081;-62
2022/09/02 05:40:11;;;;;;;;;;;;;;;17.26;55.84;99775.19;5057229;28;20041;-62
2022/09/02 05:42:43;;;;;;;0.60;0.60;;;;;;;17.20;55.16;99762.44;5055539;28;20285;-62
2022/09/02 05:45:17;;;;;;;1.27;1.17;;;;;;;17.22;54.64;99765.00;5056488;28;20052;-62
2022/09/02 05:47:48;;;;;;;0.70;0.70;;;;;;;17.19;54.63;99771.06;5056492;28;20059;-62
2022/09/02 05:50:19;;;;;;;0.40;0.40;;;;;;;17.19;54.90;99771.06;5056612;28;20052;-62
2022/09/02 05:52:51;;;;;;;1.63;0.82;;;;;;;17.14;54.75;99762.59;5056190;28;20052;-62
2022/09/02 05:55:21;;;;;;;0.52;0.52;;;;;;;17.27;54.77;99770.88;5055346;28;20049;-62
2022/09/02 05:57:50;;;;;;;0.60;0.60;;;;;;;17.29;54.89;99772.53;5054956;28;20041;-62
2022/09/02 06:00:19;;;;;;;2.53;0.82;;;;;;;17.28;54.79;99772.56;5056929;28;20045;-62
2022/09/02 06:02:57;;;;;;;0.65;0.65;;;;;;;17.31;54.70;99770.75;5054905;28;20048;-62
2022/09/02 06:05:36;;;;;;;0.50;0.50;;;;;;;17.34;54.21;99775.84;5054975;28;20076;-62
2022/09/02 06:08:11;;;;;;;0.77;0.77;;;;;;;17.37;54.00;99778.31;5055918;28;20049;-62
2022/09/02 06:10:43;;;;;;;0.60;0.60;;;;;;;17.34;53.78;99762.94;5056031;28;20064;-62
2022/09/02 06:13:20;;;;;;;0.60;0.60;;;;;;;17.39;53.59;99773.13;5055908;28;20051;-62
2022/09/02 06:15:51;;;;;;;1.65;0.95;;;;;;;17.39;53.36;99770.56;5056110;28;20433;-62
2022/09/02 06:18:24;;;;;;;0.63;0.63;;;;;;;17.42;53.22;99768.72;5055838;28;20049;-62
2022/09/02 06:20:57;;;;;;;0.60;0.60;;;;;;;17.47;53.35;99766.00;5055676;28;20069;-62
2022/09/02 06:23:31;;;;;;;0.70;0.70;;;;;;;17.54;53.25;99767.56;5055773;28;20073;-62
2022/09/02 06:26:02;;;;;;;0.47;0.47;;;;;;;17.54;53.23;99766.75;5055501;28;20045;-62
2022/09/02 06:28:31;;;;;;;1.15;1.10;;;;;;;17.63;52.92;99769.06;5054355;28;20045;-62
2022/09/02 06:31:06;;;;;;;0.60;0.60;;;;;;;17.64;52.78;99768.16;5055224;28;20037;-63
2022/09/02 06:33:35;;;;;;;0.73;0.73;;;;;;;17.60;52.76;99766.56;5073685;28;20067;-62
2022/09/02 06:36:09;;;;;;;0.60;0.60;;;;;;;17.74;52.68;99775.63;5075657;28;20049;-62
2022/09/02 06:38:39;;;;;;;0.55;0.55;;;;;;;17.76;52.93;99771.25;5073915;28;20098;-62
2022/09/02 06:41:17;;;;;;;0.60;0.60;;;;;;;17.81;53.08;99765.94;5074915;28;20041;-62
2022/09/02 06:43:46;;;;;;;0.93;0.80;;;;;;;17.83;52.94;99769.31;5074127;28;20448;-62
2022/09/02 06:46:24;;;;;;;0.80;0.80;;;;;;;17.90;53.01;99766.53;5075505;28;20102;-62
2022/09/02 06:48:56;;;;;;;0.52;0.52;;;;;;;17.93;52.40;99771.63;5075578;28;20076;-62
2022/09/02 06:51:29;;;;;;;0.63;0.63;;;;;;;17.81;52.43;99729.81;5074051;28;20044;-62
2022/09/02 06:54:00;;;;;;;0.70;0.70;;;;;;;18.12;52.43;99768.47;5075082;28;20075;-62
2022/09/02 06:56:33;;;;;;;1.67;1.58;;;;;;;18.15;51.99;99766.66;5075123;28;20083;-62
2022/09/02 06:59:03;;;;;;;0.70;0.70;;;;;;;18.19;51.62;99768.25;5075234;28;20045;-62
2022/09/02 07:01:44;;;;;;;0.60;0.60;;;;;;;18.26;51.62;99767.16;5075005;28;20052;-62
2022/09/02 07:06:57;;;;;;;0.50;0.50;;;;;;;18.35;51.18;99774.66;5062307;28;20049;-62
2022/09/02 07:09:31;;;;;;;0.60;0.60;;;;;;;18.34;51.16;99770.38;5054985;28;20375;-62
2022/09/02 07:12:07;;;;;;;0.60;0.60;;;;;;;18.42;51.33;99765.84;5053706;28;20060;-62
2022/09/02 07:14:43;;;;;;;4.38;0.57;;;;;;;18.42;51.27;99759.81;5053697;28;20398;-62
2022/09/02 07:17:16;;;;;;;0.45;0.45;;;;;;;18.47;51.01;99763.97;5053854;28;20562;-62
2022/09/02 07:19:50;;;;;;;0.40;0.40;;;;;;;18.54;51.27;99768.06;5054980;28;20055;-62
2022/09/02 07:22:20;;;;;;;1.10;1.02;;;;;;;18.73;50.70;99765.72;5059654;28;20052;-63
2022/09/02 07:24:49;;;;;;;0.50;0.50;;;;;;;18.97;50.57;99764.06;5056596;28;20128;-62
2022/09/02 07:27:19;;;;;;;0.50;0.50;;;;;;;19.14;50.22;99767.78;5054457;28;20053;-62
2022/09/02 07:29:49;;;;;;;0.60;0.60;;;;;;;19.32;50.13;99767.16;5055314;28;20462;-62
2022/09/02 07:32:20;;;;;;;0.50;0.50;;;;;;;19.37;49.10;99769.59;5054874;28;20491;-62
2022/09/02 07:34:49;;;;;;;0.60;0.60;;;;;;;19.51;49.40;99766.53;5053138;28;20059;-62
2022/09/02 07:37:20;;;;;;;0.75;0.65;;;;;;;19.64;48.47;99768.63;5055157;28;20131;-63
2022/09/02 07:39:53;;;;;;;0.80;0.80;;;;;;;19.67;47.41;99762.50;5071650;28;20051;-62
2022/09/02 07:42:23;;;;;;;0.50;0.50;;;;;;;19.72;47.36;99758.00;5074211;28;20044;-62
2022/09/02 07:44:52;;;;;;;;;;;;;;;19.87;47.05;99763.44;5073374;28;20068;-62
2022/09/02 07:47:21;;;;;;;0.65;0.65;;;;;;;20.02;47.27;99749.91;5074321;28;19920;-62
2022/09/02 07:49:51;;;;;;;0.70;0.70;;;;;;;20.17;46.71;99758.00;5070301;28;20041;-63
2022/09/02 07:52:42;;;;;;;0.77;0.77;;;;;;;20.15;45.93;99752.03;5064431;28;20037;-62
2022/09/02 07:55:13;;;;;;;0.45;0.45;;;;;;;20.17;46.35;99747.63;5074586;28;20056;-62
2022/09/02 07:57:45;;;;;;;0.50;0.50;;;;;;;20.30;45.75;99748.91;5074245;28;20056;-62
2022/09/02 08:00:17;;;;;;;0.50;0.50;;;;;;;20.34;45.58;99758.25;5073899;28;20048;-62
2022/09/02 08:02:49;;;;;;;0.88;0.88;;;;;;;20.38;45.69;99754.59;5069418;28;20094;-62
2022/09/02 08:05:26;;;;;;;2.67;0.95;;;;;;;20.45;46.32;99756.06;5052633;28;20379;-62
2022/09/02 08:07:56;;;;;;;0.47;0.47;;;;;;;20.57;45.82;99751.22;5054013;28;20033;-62
2022/09/02 08:10:28;;;;;;;0.40;0.40;;;;;;;20.61;45.56;99749.38;5060283;28;20055;-62
2022/09/02 08:12:59;;;;;;;0.60;0.60;;;;;;;20.68;45.34;99740.44;5073725;28;20044;-62
2022/09/02 08:15:30;;;;;;;0.70;0.70;;;;;;;20.80;45.48;99745.13;5074027;28;20375;-62
2022/09/02 08:17:59;;;;;;;1.02;0.90;;;;;;;20.81;44.70;99736.41;5067756;28;20442;-63
2022/09/02 08:20:29;;;;;;;0.50;0.50;;;;;;;20.84;43.95;99740.63;5073203;28;20449;-62
2022/09/02 08:22:59;;;;;;;1.33;0.93;;;;;;;20.83;44.13;99739.78;5073906;28;20131;-62
2022/09/02 08:25:39;;;;;;;0.50;0.50;;;;;;;20.87;44.04;99741.38;5074297;28;20110;-62
2022/09/02 08:28:08;;;;;;;0.50;0.50;;;;;;;20.95;43.85;99736.69;5072386;28;20040;-62
2022/09/02 08:30:36;;;;;;;0.50;0.50;;;;;;;21.08;44.46;99735.28;5053101;28;20503;-62
2022/09/02 08:33:06;;;;;;;0.88;0.85;;;;;;;21.16;44.29;99728.00;5054074;28;20487;-62
2022/09/02 08:35:34;;;;;;;1.58;1.08;;;;;;;21.34;44.37;99735.00;5053626;28;20407;-62
2022/09/02 08:38:05;;;;;;;0.43;0.43;;;;;;;21.41;44.70;99726.94;5053747;28;20098;-62
2022/09/02 08:40:38;;;;;;;0.57;0.57;;;;;;;21.49;43.78;99730.06;5052833;28;20049;-62
2022/09/02 08:43:24;;;;;;;0.50;0.50;;;;;;;21.56;43.65;99731.47;5053273;28;20045;-62
2022/09/02 08:45:55;;;;;;;0.70;0.70;;;;;;;21.56;43.58;99731.47;5054091;28;20049;-64
2022/09/02 08:48:34;;;;;;;0.40;0.40;;;;;;;21.62;43.80;99726.00;5053195;28;20037;-63
2022/09/02 08:51:08;;;;;;;0.70;0.70;;;;;;;21.75;43.59;99721.94;5053233;28;20083;-63
2022/09/02 08:53:50;;;;;;;0.73;0.73;;;;;;;21.82;44.71;99725.94;5053224;28;20065;-63
2022/09/02 08:56:19;;;;;;;0.70;0.70;;;;;;;21.96;44.65;99723.56;5053340;28;20055;-63
2022/09/02 08:58:52;;;;;;;0.40;0.40;;;;;;;22.02;43.68;99723.31;5053189;28;20100;-63
2022/09/02 09:01:36;;;;;;;0.68;0.68;;;;;;;22.01;43.76;99719.84;5059990;28;20484;-63
2022/09/02 09:04:18;;;;;;;3.17;1.42;;;;;;;22.08;43.56;99716.94;5053023;28;20494;-63
2022/09/02 09:07:13;;;;;;;0.55;0.55;;;;;;;22.11;43.61;99709.88;5067386;28;20554;-63
2022/09/02 09:10:03;;;;;;;0.75;0.75;;;;;;;22.10;44.01;99715.16;5057029;28;20506;-63
2022/09/02 09:12:55;;;;;;;0.50;0.50;;;;;;;22.20;43.66;99709.41;5072491;28;20048;-63
2022/09/02 09:15:34;;;;;;;0.55;0.55;;;;;;;22.41;43.34;99707.56;5075049;28;20082;-63
2022/09/02 09:18:05;;;;;;;;;;;;;;;22.57;42.75;99704.13;5066392;28;20136;-63
2022/09/02 09:20:37;;;;;;;0.63;0.63;;;;;;;22.68;42.71;99701.88;5057374;28;19920;-64
2022/09/02 09:23:29;;;;;;;0.75;0.75;;;;;;;22.73;41.84;99698.19;5065980;28;20049;-63
2022/09/02 09:26:08;;;;;;;0.75;0.75;;;;;;;22.75;41.85;99697.19;5056820;28;20112;-63
2022/09/02 09:28:42;;;;;;;0.70;0.70;;;;;;;22.83;40.90;99695.06;5062064;28;20505;-63
2022/09/02 09:31:14;;;;;;;0.68;0.63;;;;;;;22.90;40.64;99698.19;5068328;28;20062;-63
2022/09/02 09:33:57;;;;;;;0.50;0.50;;;;;;;23.03;40.60;99696.66;5076763;28;20044;-63
2022/09/02 09:36:44;;;;;;;0.60;0.60;;;;;;;23.09;40.13;99697.16;5076604;28;20139;-63
2022/09/02 09:39:19;;;;;;;0.60;0.60;;;;;;;23.36;42.35;99692.31;5076549;28;20052;-63
2022/09/02 09:41:50;;;;;;;0.50;0.50;;;;;;;23.56;43.61;99692.13;5076503;28;20048;-63
2022/09/02 09:44:38;;;;;;;0.60;0.60;;;;;;;23.60;41.66;99693.63;5076427;28;20052;-62
2022/09/02 09:47:09;;;;;;;0.60;0.60;;;;;;;23.67;40.87;99689.78;5076756;28;20056;-62
2022/09/02 09:49:44;;;;;;;0.50;0.50;;;;;;;23.73;40.51;99683.38;5076616;28;20094;-62
2022/09/02 09:52:23;;;;;;;0.50;0.50;;;;;;;23.89;41.46;99674.66;5076354;28;20041;-62
2022/09/02 09:55:08;;;;;;;0.70;0.68;;;;;;;23.97;41.61;99677.66;5076258;28;20076;-63
2022/09/02 09:57:43;;;;;;;0.50;0.50;;;;;;;24.13;41.29;99672.47;5076515;28;20048;-62
2022/09/02 10:00:21;;;;;;;0.63;0.63;;;;;;;24.13;40.46;99677.69;5076433;28;20052;-63
2022/09/02 10:02:52;;;;;;;0.60;0.60;;;;;;;24.05;41.56;99673.78;5076462;28;20120;-63
2022/09/02 10:05:35;;;;;;;0.50;0.50;;;;;;;24.02;40.58;99674.78;5075771;28;20048;-63
2022/09/02 10:08:06;;;;;;;0.47;0.47;;;;;;;24.05;39.31;99666.78;5076159;28;20041;-62
2022/09/02 10:10:57;;;;;;;0.75;0.75;;;;;;;24.28;39.73;99665.53;5075750;28;20049;-63
2022/09/02 10:13:29;;;;;;;0.40;0.40;;;;;;;24.46;37.85;99665.31;5076636;28;20048;-63
2022/09/02 10:16:22;;;;;;;0.50;0.50;;;;;;;24.67;37.63;99658.00;5075327;28;20048;-63
2022/09/02 10:18:56;;;;;;;1.88;0.65;;;;;;;24.79;36.78;99654.69;5075620;28;20037;-63
2022/09/02 10:21:40;;;;;;;0.50;0.50;;;;;;;24.63;35.40;99651.28;5076054;28;20048;-63
2022/09/02 10:24:33;;;;;;;0.50;0.50;;;;;;;24.45;35.13;99647.97;5075803;28;20083;-62
2022/09/02 10:27:08;;;;;;;0.60;0.60;;;;;;;24.48;35.01;99644.34;5076104;28;20072;-62
2022/09/02 10:29:55;;;;;;;0.65;0.65;;;;;;;24.60;36.15;99635.81;5075687;28;20049;-62
2022/09/02 10:32:45;;;;;;;0.47;0.47;;;;;;;24.70;35.97;99636.09;5076161;28;20474;-62
2022/09/02 10:35:21;;;;;;;0.60;0.60;;;;;;;24.90;36.74;99641.88;5075932;28;20150;-62
2022/09/02 10:38:03;;;;;;;0.50;0.50;;;;;;;25.18;38.02;99641.88;5075739;28;20577;-62
2022/09/02 10:40:40;;;;;;;0.50;0.50;;;;;;;25.26;37.16;99647.47;5075479;28;20047;-62
2022/09/02 10:43:22;;;;;;;0.40;0.40;;;;;;;25.22;36.22;99651.19;5075495;28;20433;-62
2022/09/02 10:45:58;;;;;;;0.60;0.50;;;;;;;25.28;35.33;99645.59;5075442;28;20044;-62
2022/09/02 10:48:40;;;;;;;0.50;0.50;;;;;;;25.34;35.23;99638.31;5075283;28;20094;-62
2022/09/02 10:51:21;;;;;;;0.50;0.50;;;;;;;25.01;34.79;99636.81;5075540;28;20144;-62
2022/09/02 10:54:02;;;;;;;0.40;0.40;;;;;;;24.44;34.89;99640.25;5075126;28;20059;-62
2022/09/02 10:56:39;;;;;;;0.45;0.45;;;;;;;24.23;35.59;99631.06;5075244;28;20052;-62
2022/09/02 10:59:13;;;;;;;0.50;0.50;;;;;;;24.41;35.53;99640.41;5074994;28;20498;-62
2022/09/02 11:01:52;;;;;;;0.57;0.57;;;;;;;24.39;35.83;99637.06;5074155;28;20068;-62
2022/09/02 11:04:26;;;;;;;0.50;0.50;;;;;;;24.82;38.40;99636.25;5074946;28;20053;-62
2022/09/02 11:06:58;;;;;;;0.50;0.50;;;;;;;25.15;38.47;99630.75;5074828;28;20507;-62
2022/09/02 11:09:36;;;;;;;0.93;0.70;;;;;;;24.93;37.52;99628.59;5075183;28;20105;-62
2022/09/02 11:12:11;;;;;;;0.77;0.77;;;;;;;24.73;37.38;99631.56;5075030;28;20037;-62
2022/09/02 11:14:53;;;;;;;0.70;0.63;;;;;;;24.81;37.23;99624.13;5075320;28;20055;-62
2022/09/02 11:17:28;;;;;;;0.40;0.40;;;;;;;24.74;37.03;99632.41;5074737;28;20060;-62
2022/09/02 11:20:04;;;;;;;2.00;0.82;;;;;;;24.60;38.84;99630.59;5074904;28;20098;-62
2022/09/02 11:22:41;;;;;;;0.50;0.50;;;;;;;24.37;38.74;99628.47;5074616;28;20135;-62
2022/09/02 11:25:16;;;;;;;0.63;0.63;;;;;;;24.07;38.10;99625.84;5074809;28;20045;-62
2022/09/02 11:27:52;;;;;;;0.50;0.50;;;;;;;23.93;38.86;99625.75;5074157;28;20086;-62
2022/09/02 11:30:25;;;;;;;0.43;0.43;;;;;;;23.92;39.57;99631.91;5075033;28;20494;-61
2022/09/02 11:33:02;;;;;;;0.60;0.60;;;;;;;23.82;40.19;99615.94;5069777;28;20052;-61
2022/09/02 11:35:37;;;;;;;0.50;0.50;;;;;;;23.75;41.19;99621.59;5053809;28;20051;-63
2022/09/02 11:38:20;;;;;;;0.50;0.50;;;;;;;23.79;41.24;99631.75;5055353;28;20132;-61
2022/09/02 11:41:18;;;;;;;0.50;0.50;;;;;;;23.72;41.88;99619.97;5054211;28;20045;-65
2022/09/02 11:44:43;;;;;;;0.40;0.40;;;;;;;24.07;41.94;99614.59;5072203;28;20409;-62
2022/09/02 11:47:37;;;;;;;2.47;0.57;;;;;;;24.57;39.85;99610.72;5074370;28;20029;-62
2022/09/02 11:50:31;;;;;;;0.52;0.52;;;;;;;25.07;38.87;99615.56;5064032;28;20132;-63
2022/09/02 11:53:19;;;;;;;0.60;0.60;;;;;;;25.44;38.42;99602.81;5053904;28;20033;-62
2022/09/02 11:55:55;;;;;;;0.32;0.32;;;;;;;25.68;37.61;99596.06;5054056;28;20045;-62
2022/09/02 11:58:32;;;;;;;0.50;0.50;;;;;;;25.97;36.85;99597.66;5054011;28;20078;-62
2022/09/02 12:01:06;;;;;;;0.55;0.55;;;;;;;26.17;36.46;99591.16;5054213;28;20037;-62
2022/09/02 12:03:46;;;;;;;0.50;0.50;;;;;;;26.24;36.93;99595.88;5054114;28;20114;-62
2022/09/02 12:06:37;;;;;;;0.60;0.60;;;;;;;26.12;36.37;99591.47;5054108;28;20473;-62